Hewitt, New Jersey
Current Conditions -  °F | °C
As of 5:26 PM on Monday 26 Jan 2015 (Local Time) from KFWN Reporting Station
Light Snow Light Snow  
Wind Chill:   Ceiling: 2200
Heat Index: 18°   Visibility: 3mi
Dew Point: 13°   Wind: 9mph
Humidity: 81%   Direction: 50°NE
Pressure: 29.86"   Gusts: 18mph
Location:  41.14°N, 74.31°W
Report Text: KFWN 262226Z AUTO 05008G16KT 3SM -SN BKN022 OVC033 M08/M11 A2986 RMK AO2 P0000 T10781106
Loading
Personal Weather Stations






























Interactive Weather Map New forecast layout! Learn more

10-Day Weather Forecast

Advertisements
Track Severe Weather on mobile